createdAt,value
2019-04-11T00:00:19.479Z,4.12
2019-04-11T00:01:19.791Z,4.12
2019-04-11T00:02:18.874Z,3.93
2019-04-11T00:03:19.479Z,4.04
2019-04-11T00:04:18.854Z,4.00
2019-04-11T00:05:18.930Z,3.96
2019-04-11T00:06:19.251Z,3.94
2019-04-11T00:07:18.819Z,3.94
2019-04-11T00:08:19.661Z,3.73
2019-04-11T00:09:18.837Z,3.83
2019-04-11T00:10:18.789Z,3.80
2019-04-11T00:11:19.837Z,3.76
2019-04-11T00:12:18.820Z,3.70
2019-04-11T00:13:23.841Z,3.70
2019-04-11T00:14:20.007Z,3.66
2019-04-11T00:15:18.735Z,3.68
2019-04-11T00:16:19.433Z,3.57
2019-04-11T00:17:19.566Z,3.58
2019-04-11T00:18:18.714Z,3.55
2019-04-11T00:19:19.090Z,3.62
2019-04-11T00:20:18.685Z,3.69
2019-04-11T00:21:18.678Z,3.58
2019-04-11T00:22:19.459Z,3.54
2019-04-11T00:23:18.650Z,3.57
2019-04-11T00:24:18.755Z,3.68
2019-04-11T00:25:19.755Z,3.69
2019-04-11T00:26:18.618Z,3.61
2019-04-11T00:27:19.095Z,3.66
2019-04-11T00:28:18.595Z,3.57
2019-04-11T00:29:18.584Z,3.65
2019-04-11T00:30:19.743Z,3.58
2019-04-11T00:31:18.921Z,3.58
2019-04-11T00:32:19.148Z,3.51
2019-04-11T00:33:18.547Z,3.58
2019-04-11T00:34:18.589Z,3.55
2019-04-11T00:35:19.629Z,3.48
2019-04-11T00:36:18.511Z,3.58
2019-04-11T00:37:19.075Z,3.54
2019-04-11T00:38:18.489Z,3.48
2019-04-11T00:39:19.474Z,3.43
2019-04-11T00:40:19.708Z,3.42
2019-04-11T00:41:18.566Z,3.42
2019-04-11T00:42:18.716Z,3.39
2019-04-11T00:43:30.879Z,3.39
2019-04-11T00:44:19.425Z,3.32
2019-04-11T00:45:19.167Z,3.35
2019-04-11T00:46:18.408Z,3.32
2019-04-11T00:47:18.395Z,3.29
2019-04-11T00:48:19.620Z,3.24
2019-04-11T00:49:18.673Z,3.21
2019-04-11T00:50:19.078Z,3.15
2019-04-11T00:51:18.725Z,3.17
2019-04-11T00:52:18.450Z,3.20
2019-04-11T00:53:19.021Z,3.11
2019-04-11T00:54:18.509Z,3.17
2019-04-11T00:55:18.313Z,3.20
2019-04-11T00:56:18.302Z,3.21
2019-04-11T00:57:18.956Z,3.20
2019-04-11T00:58:19.304Z,3.13
2019-04-11T00:59:18.352Z,3.03
2019-04-11T01:00:18.668Z,3.14
2019-04-11T01:01:18.251Z,3.11
2019-04-11T01:02:18.236Z,3.11
2019-04-11T01:03:18.224Z,2.99
2019-04-11T01:04:18.214Z,3.00
2019-04-11T01:05:18.298Z,3.00
2019-04-11T01:06:18.285Z,3.00
2019-04-11T01:07:18.542Z,2.97
2019-04-11T01:08:18.174Z,2.90
2019-04-11T01:09:18.159Z,3.00
2019-04-11T01:10:18.181Z,2.99
2019-04-11T01:11:18.139Z,2.93
2019-04-11T01:12:18.614Z,2.84
2019-04-11T01:13:18.118Z,2.82
2019-04-11T01:14:18.108Z,2.82
2019-04-11T01:15:18.097Z,2.82
2019-04-11T01:16:18.086Z,2.82
2019-04-11T01:17:18.079Z,2.82
2019-04-11T01:18:19.217Z,2.79
2019-04-11T01:19:18.450Z,2.79
2019-04-11T01:20:18.043Z,2.78
2019-04-11T01:21:18.035Z,2.78
2019-04-11T01:22:18.220Z,2.72
2019-04-11T01:23:18.562Z,2.75
2019-04-11T01:24:18.004Z,2.75
2019-04-11T01:25:17.990Z,2.75
2019-04-11T01:26:19.105Z,2.69
2019-04-11T01:27:18.150Z,2.78
2019-04-11T01:28:18.562Z,2.75
2019-04-11T01:29:17.961Z,2.81
2019-04-11T01:30:17.938Z,2.77
2019-04-11T01:31:17.928Z,2.72
2019-04-11T01:32:18.073Z,2.69
2019-04-11T01:33:17.908Z,2.72
2019-04-11T01:34:18.192Z,2.75
2019-04-11T01:35:17.885Z,2.77
2019-04-11T01:36:18.547Z,2.78
2019-04-11T01:37:17.866Z,2.72
2019-04-11T01:38:17.866Z,2.66
2019-04-11T01:39:18.952Z,2.69
2019-04-11T01:40:17.929Z,2.69
2019-04-11T01:41:18.363Z,2.67
2019-04-11T01:42:17.811Z,2.64
2019-04-11T01:43:17.800Z,2.63
2019-04-11T01:44:18.671Z,2.66
2019-04-11T01:45:19.039Z,2.61
2019-04-11T01:46:18.116Z,2.60
2019-04-11T01:47:18.414Z,2.60
2019-04-11T01:48:17.747Z,2.64
2019-04-11T01:49:17.736Z,2.61
2019-04-11T01:50:18.736Z,2.63
2019-04-11T01:51:17.933Z,2.59
2019-04-11T01:52:18.219Z,2.64
2019-04-11T01:53:17.694Z,2.60
2019-04-11T01:54:17.682Z,2.61
2019-04-11T01:55:18.530Z,2.64
2019-04-11T01:56:17.859Z,2.61
2019-04-11T01:57:18.016Z,2.61
2019-04-11T01:58:18.385Z,2.63
2019-04-11T01:59:17.630Z,2.60
2019-04-11T02:00:17.752Z,2.57
2019-04-11T02:01:18.780Z,2.59
2019-04-11T02:02:17.599Z,2.64
2019-04-11T02:03:17.589Z,2.63
2019-04-11T02:04:17.584Z,2.66
2019-04-11T02:05:18.777Z,2.60
2019-04-11T02:06:18.029Z,2.64
2019-04-11T02:07:18.478Z,2.57
2019-04-11T02:08:17.541Z,2.64
2019-04-11T02:09:17.525Z,2.60
2019-04-11T02:10:17.515Z,2.66
2019-04-11T02:11:17.503Z,2.61
2019-04-11T02:12:18.416Z,2.61
2019-04-11T02:13:17.569Z,2.63
2019-04-11T02:14:19.504Z,2.59
2019-04-11T02:15:17.461Z,2.63
2019-04-11T02:16:17.451Z,2.66
2019-04-11T02:17:17.441Z,2.59
2019-04-11T02:18:17.429Z,2.53
2019-04-11T02:19:18.289Z,2.59
2019-04-11T02:20:17.618Z,2.53
2019-04-11T02:21:17.838Z,2.54
2019-04-11T02:22:18.030Z,2.54
2019-04-11T02:23:17.382Z,2.56
2019-04-11T02:24:17.477Z,2.54
2019-04-11T02:25:18.305Z,2.49
2019-04-11T02:26:17.344Z,2.49
2019-04-11T02:27:17.334Z,2.49
2019-04-11T02:28:17.323Z,2.52
2019-04-11T02:29:17.352Z,2.59
2019-04-11T02:30:18.884Z,2.54
2019-04-11T02:31:19.581Z,2.46
2019-04-11T02:32:18.504Z,2.53
2019-04-11T02:33:18.400Z,2.57
2019-04-11T02:34:17.263Z,2.53
2019-04-11T02:35:17.691Z,2.49
2019-04-11T02:36:18.897Z,2.45
2019-04-11T02:37:17.424Z,2.41
2019-04-11T02:38:18.766Z,2.45
2019-04-11T02:39:19.741Z,2.42
2019-04-11T02:40:17.756Z,2.42
2019-04-11T02:41:18.569Z,2.43
2019-04-11T02:42:18.882Z,2.42
2019-04-11T02:43:17.825Z,2.27
2019-04-11T02:44:30.717Z,2.38
2019-04-11T02:45:32.663Z,2.42
2019-04-11T02:46:28.273Z,2.42
2019-04-11T02:47:22.855Z,2.38
2019-04-11T02:48:18.429Z,2.46
2019-04-11T02:49:17.105Z,2.38
2019-04-11T02:50:19.759Z,2.39
2019-04-11T02:51:18.258Z,2.30
2019-04-11T02:52:17.541Z,2.34
2019-04-11T02:53:17.540Z,2.38
2019-04-11T02:54:18.165Z,2.31
2019-04-11T02:55:17.338Z,2.25
2019-04-11T02:56:17.408Z,2.34
2019-04-11T02:57:18.346Z,2.20
2019-04-11T02:58:18.547Z,2.21
2019-04-11T02:59:17.677Z,2.17
2019-04-11T03:00:18.018Z,2.21
2019-04-11T03:01:17.919Z,2.18
2019-04-11T03:02:19.381Z,2.23
2019-04-11T03:03:17.513Z,2.10
2019-04-11T03:04:16.942Z,2.12
2019-04-11T03:05:18.329Z,2.09
2019-04-11T03:06:17.534Z,2.14
2019-04-11T03:07:16.913Z,2.09
2019-04-11T03:08:19.782Z,2.12
2019-04-11T03:09:17.710Z,2.06
2019-04-11T03:10:18.601Z,2.03
2019-04-11T03:11:19.154Z,2.09
2019-04-11T03:12:16.861Z,1.98
2019-04-11T03:13:16.906Z,2.02
2019-04-11T03:14:18.714Z,1.95
2019-04-11T03:15:31.740Z,1.95
2019-04-11T03:16:32.869Z,2.00
2019-04-11T03:17:21.262Z,1.90
2019-04-11T03:18:37.424Z,1.91
2019-04-11T03:19:35.808Z,1.88
2019-04-11T03:20:26.642Z,1.80
2019-04-11T03:21:21.551Z,1.81
2019-04-11T03:22:18.249Z,1.80
2019-04-11T03:23:19.339Z,1.77
2019-04-11T03:24:17.635Z,1.79
2019-04-11T03:25:17.787Z,1.79
2019-04-11T03:26:17.019Z,1.76
2019-04-11T03:27:17.951Z,1.70
2019-04-11T03:28:22.613Z,1.65
2019-04-11T03:29:17.861Z,1.66
2019-04-11T03:30:23.967Z,1.63
2019-04-11T03:31:47.228Z,1.50
2019-04-11T03:33:00.555Z,1.48
2019-04-11T03:34:01.904Z,1.48
2019-04-11T03:35:17.362Z,1.50
2019-04-11T03:36:18.891Z,1.55
2019-04-11T03:37:38.021Z,1.51
2019-04-11T03:38:44.094Z,1.47
2019-04-11T03:39:37.815Z,1.48
2019-04-11T03:40:36.157Z,1.51
2019-04-11T03:41:34.729Z,1.51
2019-04-11T03:42:35.209Z,1.50
2019-04-11T03:43:31.402Z,1.45
2019-04-11T03:44:24.398Z,1.47
2019-04-11T03:45:38.718Z,1.42
2019-04-11T03:46:33.883Z,1.47
2019-04-11T03:47:31.923Z,1.52
2019-04-11T03:48:29.099Z,1.40
2019-04-11T03:49:27.797Z,1.33
2019-04-11T03:50:21.366Z,1.40
2019-04-11T03:51:18.774Z,1.37
2019-04-11T03:52:17.221Z,1.32
2019-04-11T03:53:17.322Z,1.32
2019-04-11T03:54:17.951Z,1.34
2019-04-11T03:55:16.575Z,1.27
2019-04-11T03:56:19.930Z,1.40
2019-04-11T03:57:17.425Z,1.40
2019-04-11T03:58:17.432Z,1.33
2019-04-11T03:59:16.833Z,1.33
2019-04-11T04:00:16.669Z,1.37
2019-04-11T04:01:18.185Z,1.29
2019-04-11T04:02:16.962Z,1.34
2019-04-11T04:03:18.069Z,1.23
2019-04-11T04:04:19.030Z,1.24
2019-04-11T04:05:17.574Z,1.23
2019-04-11T04:06:16.960Z,1.23
2019-04-11T04:07:16.686Z,1.20
2019-04-11T04:08:17.819Z,1.26
2019-04-11T04:09:17.084Z,1.23
2019-04-11T04:10:17.937Z,1.20
2019-04-11T04:11:16.806Z,1.18
2019-04-11T04:12:16.244Z,1.08
2019-04-11T04:13:18.928Z,1.18
2019-04-11T04:14:17.685Z,1.12
2019-04-11T04:15:32.706Z,1.22
2019-04-11T04:16:24.338Z,1.16
2019-04-11T04:17:18.777Z,1.15
2019-04-11T04:18:16.534Z,1.15
2019-04-11T04:19:16.416Z,1.18
2019-04-11T04:20:17.165Z,1.14
2019-04-11T04:21:17.442Z,1.11
2019-04-11T04:22:17.852Z,1.08
2019-04-11T04:23:16.672Z,1.09
2019-04-11T04:24:16.587Z,1.08
2019-04-11T04:25:16.684Z,1.09
2019-04-11T04:26:16.886Z,1.09
2019-04-11T04:27:17.271Z,1.06
2019-04-11T04:28:16.069Z,1.12
2019-04-11T04:29:17.833Z,1.11
2019-04-11T04:30:18.063Z,1.11
2019-04-11T04:31:16.306Z,1.09
2019-04-11T04:32:16.411Z,1.14
2019-04-11T04:33:17.044Z,1.11
2019-04-11T04:34:17.400Z,1.15
2019-04-11T04:35:20.944Z,1.09
2019-04-11T04:36:18.248Z,1.08
2019-04-11T04:37:16.594Z,1.15
2019-04-11T04:38:15.946Z,1.09
2019-04-11T04:39:17.283Z,1.06
2019-04-11T04:40:31.465Z,1.11
2019-04-11T04:41:28.206Z,1.08
2019-04-11T04:42:26.337Z,1.14
2019-04-11T04:43:18.554Z,1.08
2019-04-11T04:44:16.971Z,1.15
2019-04-11T04:45:16.458Z,1.12
2019-04-11T04:46:31.341Z,1.15
2019-04-11T04:47:26.086Z,1.11
2019-04-11T04:48:20.913Z,1.11
2019-04-11T04:49:18.528Z,1.08
2019-04-11T04:50:15.821Z,1.06
2019-04-11T04:51:17.763Z,1.05
2019-04-11T04:52:16.431Z,1.11
2019-04-11T04:53:16.195Z,1.04
2019-04-11T04:54:16.308Z,1.11
2019-04-11T04:55:17.283Z,1.16
2019-04-11T04:56:20.146Z,1.06
2019-04-11T04:57:18.197Z,1.16
2019-04-11T04:58:17.396Z,1.08
2019-04-11T04:59:16.313Z,1.09
2019-04-11T05:00:15.718Z,1.11
2019-04-11T05:01:17.112Z,1.09
2019-04-11T05:02:17.583Z,1.08
2019-04-11T05:03:15.987Z,1.14
2019-04-11T05:04:15.855Z,1.14
2019-04-11T05:05:15.661Z,1.22
2019-04-11T05:06:16.333Z,1.12
2019-04-11T05:07:17.131Z,1.26
2019-04-11T05:08:16.570Z,1.23
2019-04-11T05:09:15.623Z,1.23
2019-04-11T05:10:15.608Z,1.29
2019-04-11T05:11:15.962Z,1.24
2019-04-11T05:12:16.264Z,1.26
2019-04-11T05:13:17.143Z,1.27
2019-04-11T05:14:15.572Z,1.30
2019-04-11T05:15:16.672Z,1.41
2019-04-11T05:16:17.815Z,1.30
2019-04-11T05:17:17.025Z,1.34
2019-04-11T05:18:17.591Z,1.45
2019-04-11T05:19:15.513Z,1.40
2019-04-11T05:20:16.264Z,1.36
2019-04-11T05:21:15.491Z,1.44
2019-04-11T05:22:15.485Z,1.44
2019-04-11T05:23:15.472Z,1.47
2019-04-11T05:24:16.564Z,1.58
2019-04-11T05:25:15.450Z,1.70
2019-04-11T05:26:15.438Z,1.99
2019-04-11T05:27:15.427Z,2.27
2019-04-11T05:28:15.429Z,2.42
2019-04-11T05:29:15.405Z,2.81
2019-04-11T05:30:16.641Z,3.20
2019-04-11T05:31:16.413Z,3.18
2019-04-11T05:32:15.514Z,3.17
2019-04-11T05:33:15.369Z,3.14
2019-04-11T05:34:16.073Z,3.13
2019-04-11T05:35:16.476Z,3.03
2019-04-11T05:36:16.455Z,2.93
2019-04-11T05:37:15.402Z,3.05
2019-04-11T05:38:15.311Z,2.87
2019-04-11T05:39:15.993Z,2.74
2019-04-11T05:40:15.289Z,2.78
2019-04-11T05:41:15.361Z,2.78
2019-04-11T05:42:17.794Z,2.96
2019-04-11T05:43:15.569Z,3.39
2019-04-11T05:44:15.247Z,3.79
2019-04-11T05:45:20.789Z,4.47
2019-04-11T05:46:31.119Z,4.85
2019-04-11T05:47:18.493Z,5.13
2019-04-11T05:48:15.684Z,5.36
2019-04-11T05:49:15.196Z,5.35
2019-04-11T05:50:15.906Z,5.57
2019-04-11T05:51:19.591Z,5.89
2019-04-11T05:52:16.163Z,6.08
2019-04-11T05:53:15.798Z,6.37
2019-04-11T05:54:16.313Z,6.92
2019-04-11T05:55:15.523Z,7.13
2019-04-11T05:56:16.804Z,7.34
2019-04-11T05:57:15.907Z,7.24
2019-04-11T05:58:16.099Z,7.21
2019-04-11T05:59:16.801Z,7.12
2019-04-11T06:00:15.846Z,7.24
2019-04-11T06:01:15.095Z,7.79
2019-04-11T06:02:15.143Z,8.05
2019-04-11T06:03:15.498Z,8.41
2019-04-11T06:04:18.294Z,8.41
2019-04-11T06:05:17.191Z,7.89
2019-04-11T06:06:16.260Z,7.37
2019-04-11T06:07:15.004Z,7.13
2019-04-11T06:08:21.134Z,7.13
2019-04-11T06:09:16.344Z,7.13
2019-04-11T06:10:14.970Z,7.13
2019-04-11T06:11:19.311Z,7.28
2019-04-11T06:12:17.068Z,7.34
2019-04-11T06:13:14.942Z,7.69
2019-04-11T06:14:15.222Z,8.01
2019-04-11T06:15:15.699Z,8.20
2019-04-11T06:16:14.907Z,7.92
2019-04-11T06:17:15.864Z,8.20
2019-04-11T06:18:26.215Z,8.66
2019-04-11T06:19:16.516Z,8.79
2019-04-11T06:20:14.863Z,8.43
2019-04-11T06:21:15.782Z,8.20
2019-04-11T06:22:14.945Z,8.10
2019-04-11T06:23:14.957Z,7.93
2019-04-11T06:24:14.819Z,7.85
2019-04-11T06:25:16.688Z,8.07
2019-04-11T06:26:14.811Z,7.72
2019-04-11T06:27:15.375Z,7.87
2019-04-11T06:28:14.821Z,8.12
2019-04-11T06:29:21.342Z,7.82
2019-04-11T06:30:15.953Z,7.68
2019-04-11T06:31:15.763Z,7.82
2019-04-11T06:32:15.813Z,7.39
2019-04-11T06:33:14.723Z,7.86
2019-04-11T06:34:15.564Z,7.63
2019-04-11T06:35:15.618Z,7.61
2019-04-11T06:36:14.691Z,7.60
2019-04-11T06:37:14.681Z,7.58
2019-04-11T06:38:14.669Z,7.74
2019-04-11T06:39:15.577Z,7.92
2019-04-11T06:40:14.651Z,7.89
2019-04-11T06:41:14.639Z,8.05
2019-04-11T06:42:15.002Z,8.34
2019-04-11T06:43:14.616Z,8.52
2019-04-11T06:44:14.609Z,8.34
2019-04-11T06:45:15.541Z,8.07
2019-04-11T06:46:14.586Z,8.30
2019-04-11T06:47:14.580Z,8.37
2019-04-11T06:48:15.630Z,8.36
2019-04-11T06:49:14.559Z,8.23
2019-04-11T06:50:15.232Z,8.18
2019-04-11T06:51:15.591Z,8.12
2019-04-11T06:52:14.880Z,8.50
2019-04-11T06:53:14.810Z,8.56
2019-04-11T06:54:14.809Z,8.76
2019-04-11T06:55:14.896Z,8.96
2019-04-11T06:56:14.697Z,9.05
2019-04-11T06:57:14.466Z,8.98
2019-04-11T06:58:15.043Z,8.79
2019-04-11T06:59:14.453Z,8.44
2019-04-11T07:00:14.773Z,8.48
2019-04-11T07:01:14.421Z,8.98
2019-04-11T07:02:18.016Z,9.53
2019-04-11T07:03:22.238Z,9.79
2019-04-11T07:04:15.645Z,9.65
2019-04-11T07:05:14.378Z,9.75
2019-04-11T07:06:15.408Z,9.78
2019-04-11T07:07:14.356Z,9.58
2019-04-11T07:08:14.346Z,9.40
2019-04-11T07:09:14.565Z,9.20
2019-04-11T07:10:14.327Z,9.26
2019-04-11T07:11:14.314Z,9.50
2019-04-11T07:12:15.508Z,9.89
2019-04-11T07:13:14.333Z,9.87
2019-04-11T07:14:14.675Z,10.02
2019-04-11T07:15:14.471Z,10.12
2019-04-11T07:16:15.246Z,9.91
2019-04-11T07:17:15.359Z,9.28
2019-04-11T07:18:14.239Z,9.32
2019-04-11T07:19:14.231Z,9.76
2019-04-11T07:20:14.219Z,10.04
2019-04-11T07:21:14.979Z,10.11
2019-04-11T07:22:15.286Z,10.02
2019-04-11T07:23:14.184Z,9.89
2019-04-11T07:24:14.175Z,10.02
2019-04-11T07:25:14.634Z,10.01
2019-04-11T07:26:14.409Z,10.04
2019-04-11T07:27:14.141Z,10.12
2019-04-11T07:28:14.455Z,10.02
2019-04-11T07:29:15.179Z,10.20
2019-04-11T07:30:14.108Z,10.73
2019-04-11T07:31:14.705Z,10.70
2019-04-11T07:32:14.087Z,10.66
2019-04-11T07:33:14.077Z,10.32
2019-04-11T07:34:14.727Z,10.53
2019-04-11T07:35:15.652Z,10.67
2019-04-11T07:36:14.676Z,10.82
2019-04-11T07:37:14.939Z,10.76
2019-04-11T07:38:14.023Z,10.15
2019-04-11T07:39:14.645Z,9.61
2019-04-11T07:40:15.323Z,9.72
2019-04-11T07:41:15.081Z,9.72
2019-04-11T07:42:15.750Z,9.84
2019-04-11T07:43:15.737Z,9.75
2019-04-11T07:44:13.958Z,10.48
2019-04-11T07:45:14.673Z,10.81
2019-04-11T07:46:14.957Z,10.82
2019-04-11T07:47:19.229Z,10.66
2019-04-11T07:48:15.190Z,11.02
2019-04-11T07:49:13.906Z,11.09
2019-04-11T07:50:15.667Z,11.37
2019-04-11T07:51:13.886Z,11.52
2019-04-11T07:52:13.874Z,11.62
2019-04-11T07:53:13.908Z,11.51
2019-04-11T07:54:13.851Z,11.43
2019-04-11T07:55:13.844Z,11.35
2019-04-11T07:56:13.830Z,10.61
2019-04-11T07:57:14.927Z,10.11
2019-04-11T07:58:13.809Z,10.02
2019-04-11T07:59:14.924Z,10.02
2019-04-11T08:00:14.940Z,10.52
2019-04-11T08:01:14.730Z,11.09
2019-04-11T08:02:13.776Z,11.57
2019-04-11T08:03:14.464Z,10.12
2019-04-11T08:04:13.749Z,9.38
2019-04-11T08:05:13.734Z,10.15
2019-04-11T08:06:13.726Z,10.67
2019-04-11T08:07:13.711Z,11.10
2019-04-11T08:08:13.707Z,11.33
2019-04-11T08:09:13.691Z,11.44
2019-04-11T08:10:13.680Z,10.09
2019-04-11T08:11:13.670Z,8.96
2019-04-11T08:12:13.659Z,8.26
2019-04-11T08:13:14.342Z,9.02
2019-04-11T08:14:13.636Z,9.97
2019-04-11T08:15:13.627Z,9.32
2019-04-11T08:16:14.680Z,10.02
2019-04-11T08:17:25.428Z,10.64
2019-04-11T08:18:14.733Z,10.38
2019-04-11T08:19:13.584Z,10.55
2019-04-11T08:20:13.573Z,10.32
2019-04-11T08:21:14.294Z,11.15
2019-04-11T08:22:14.571Z,11.85
2019-04-11T08:23:13.804Z,11.35
2019-04-11T08:24:13.531Z,11.43
2019-04-11T08:25:13.519Z,11.40
2019-04-11T08:26:13.715Z,11.49
2019-04-11T08:27:13.499Z,11.61
2019-04-11T08:28:14.055Z,11.49
2019-04-11T08:29:15.581Z,10.86
2019-04-11T08:30:13.471Z,9.50
2019-04-11T08:31:13.455Z,9.20
2019-04-11T08:32:13.702Z,8.76
2019-04-11T08:33:14.170Z,8.19
2019-04-11T08:34:13.421Z,8.02
2019-04-11T08:35:13.412Z,7.85
2019-04-11T08:36:13.716Z,7.72
2019-04-11T08:37:13.621Z,7.42
2019-04-11T08:38:13.386Z,7.24
2019-04-11T08:39:15.583Z,6.91
2019-04-11T08:40:13.496Z,6.73
2019-04-11T08:41:13.570Z,6.70
2019-04-11T08:42:13.336Z,6.67
2019-04-11T08:43:13.325Z,6.76
2019-04-11T08:44:13.321Z,8.47
2019-04-11T08:45:14.488Z,9.36
2019-04-11T08:46:13.294Z,9.99
2019-04-11T08:47:13.287Z,11.40
2019-04-11T08:48:13.271Z,11.90
2019-04-11T08:49:13.261Z,12.59
2019-04-11T08:50:14.285Z,13.05
2019-04-11T08:51:13.239Z,13.64
2019-04-11T08:52:13.914Z,14.12
2019-04-11T08:53:13.219Z,14.22
2019-04-11T08:54:13.330Z,13.25
2019-04-11T08:55:15.947Z,10.73
2019-04-11T08:56:13.186Z,9.75
2019-04-11T08:57:13.758Z,9.32
2019-04-11T08:58:14.139Z,9.01
2019-04-11T08:59:13.484Z,8.80
2019-04-11T09:00:13.748Z,8.53
2019-04-11T09:01:13.767Z,8.22
2019-04-11T09:02:13.121Z,7.69
2019-04-11T09:03:13.452Z,7.57
2019-04-11T09:04:14.123Z,7.34
2019-04-11T09:05:15.680Z,7.27
2019-04-11T09:06:14.727Z,7.12
2019-04-11T09:07:13.558Z,7.16
2019-04-11T09:08:14.131Z,6.88
2019-04-11T09:09:13.309Z,6.95
2019-04-11T09:10:13.034Z,7.05
2019-04-11T09:11:13.025Z,7.09
2019-04-11T09:12:14.087Z,7.09
2019-04-11T09:13:13.292Z,7.58
2019-04-11T09:14:13.764Z,8.91
2019-04-11T09:15:12.982Z,10.11
2019-04-11T09:16:13.176Z,9.40
2019-04-11T09:17:12.959Z,8.99
2019-04-11T09:18:15.037Z,8.77
2019-04-11T09:19:12.943Z,8.53
2019-04-11T09:20:13.583Z,8.19
2019-04-11T09:21:12.954Z,7.77
2019-04-11T09:22:13.130Z,7.87
2019-04-11T09:23:13.449Z,7.85
2019-04-11T09:24:12.885Z,7.89
2019-04-11T09:25:12.883Z,9.20
2019-04-11T09:26:13.877Z,10.33
2019-04-11T09:27:12.852Z,10.25
2019-04-11T09:28:13.334Z,10.73
2019-04-11T09:29:13.588Z,10.71
2019-04-11T09:30:13.373Z,11.29
2019-04-11T09:31:14.030Z,10.89
2019-04-11T09:32:12.814Z,10.05
2019-04-11T09:33:12.943Z,9.21
2019-04-11T09:34:13.279Z,8.48
2019-04-11T09:35:12.765Z,8.25
2019-04-11T09:36:13.438Z,8.11
2019-04-11T09:37:15.481Z,7.95
2019-04-11T09:38:13.880Z,7.80
2019-04-11T09:39:12.939Z,7.55
2019-04-11T09:40:12.712Z,7.43
2019-04-11T09:41:12.701Z,7.39
2019-04-11T09:42:13.427Z,7.60
2019-04-11T09:43:12.678Z,8.92
2019-04-11T09:44:12.851Z,10.52
2019-04-11T09:45:13.139Z,10.96
2019-04-11T09:46:12.653Z,11.42
2019-04-11T09:47:13.427Z,10.89
2019-04-11T09:48:16.220Z,11.14
2019-04-11T09:49:14.930Z,11.70
2019-04-11T09:50:12.607Z,11.91
2019-04-11T09:51:13.556Z,12.13
2019-04-11T09:52:12.588Z,12.35
2019-04-11T09:53:12.572Z,12.20
2019-04-11T09:54:12.567Z,11.67
2019-04-11T09:55:12.902Z,10.68
2019-04-11T09:56:13.067Z,9.90
2019-04-11T09:57:12.532Z,9.21
2019-04-11T09:58:13.147Z,8.63
2019-04-11T09:59:12.510Z,8.19
2019-04-11T10:00:12.510Z,8.05
2019-04-11T10:01:12.522Z,7.79
2019-04-11T10:02:12.477Z,7.79
2019-04-11T10:03:13.113Z,7.89
2019-04-11T10:04:12.455Z,8.01
2019-04-11T10:05:13.688Z,7.93
2019-04-11T10:06:13.885Z,7.80
2019-04-11T10:07:13.139Z,7.60
2019-04-11T10:08:12.768Z,7.69
2019-04-11T10:09:13.431Z,7.98
2019-04-11T10:10:12.854Z,8.20
2019-04-11T10:11:13.539Z,8.28
2019-04-11T10:12:12.369Z,8.10
2019-04-11T10:13:12.982Z,8.12
2019-04-11T10:14:13.498Z,8.04
2019-04-11T10:15:13.525Z,8.02
2019-04-11T10:16:12.532Z,7.83
2019-04-11T10:17:12.712Z,7.93
2019-04-11T10:18:22.960Z,8.12
2019-04-11T10:19:13.824Z,8.26
2019-04-11T10:20:12.737Z,8.29
2019-04-11T10:21:13.023Z,8.22
2019-04-11T10:22:13.115Z,8.55
2019-04-11T10:23:12.504Z,9.42
2019-04-11T10:24:15.803Z,10.07
2019-04-11T10:25:13.226Z,10.17
2019-04-11T10:26:12.217Z,10.11
2019-04-11T10:27:12.350Z,10.11
2019-04-11T10:28:13.238Z,9.91
2019-04-11T10:29:12.188Z,9.54
2019-04-11T10:30:13.040Z,9.14
2019-04-11T10:31:12.663Z,8.73
2019-04-11T10:32:12.153Z,8.48
2019-04-11T10:33:12.991Z,8.50
2019-04-11T10:34:13.221Z,8.43
2019-04-11T10:35:12.229Z,8.38
2019-04-11T10:36:12.638Z,8.26
2019-04-11T10:37:12.098Z,8.23
2019-04-11T10:38:12.086Z,8.22
2019-04-11T10:39:13.205Z,8.00
2019-04-11T10:40:12.065Z,7.87
2019-04-11T10:41:12.503Z,8.00
2019-04-11T10:42:12.641Z,8.16
2019-04-11T10:43:12.033Z,8.30
2019-04-11T10:44:12.024Z,8.30
2019-04-11T10:45:12.248Z,8.50
2019-04-11T10:46:13.235Z,8.28
2019-04-11T10:47:12.448Z,8.38
2019-04-11T10:48:11.979Z,8.66
2019-04-11T10:49:11.968Z,8.48
2019-04-11T10:50:12.077Z,8.56
2019-04-11T10:51:12.988Z,8.56
2019-04-11T10:52:12.047Z,8.59
2019-04-11T10:53:13.028Z,8.61
2019-04-11T10:54:11.913Z,8.63
2019-04-11T10:55:11.907Z,8.55
2019-04-11T10:56:11.891Z,8.29
2019-04-11T10:57:12.000Z,8.33
2019-04-11T10:58:12.893Z,8.56
2019-04-11T10:59:11.859Z,8.73
2019-04-11T11:00:12.924Z,8.92
2019-04-11T11:01:11.837Z,9.08
2019-04-11T11:02:12.761Z,9.02
2019-04-11T11:03:11.816Z,8.79
2019-04-11T11:04:11.810Z,8.87
2019-04-11T11:05:12.778Z,8.47
2019-04-11T11:06:11.783Z,8.25
2019-04-11T11:07:12.915Z,8.12
2019-04-11T11:08:11.761Z,8.10
2019-04-11T11:09:12.212Z,8.02
2019-04-11T11:10:11.740Z,7.93
2019-04-11T11:11:14.375Z,7.86
2019-04-11T11:12:12.729Z,7.98
2019-04-11T11:13:11.853Z,7.93
2019-04-11T11:14:12.365Z,7.98
2019-04-11T11:15:11.687Z,7.77
2019-04-11T11:16:11.909Z,7.68
2019-04-11T11:17:13.586Z,7.71
2019-04-11T11:18:39.895Z,7.83
2019-04-11T11:19:37.210Z,7.77
2019-04-11T11:20:22.287Z,7.75
2019-04-11T11:21:13.323Z,7.82
2019-04-11T11:22:12.554Z,7.80
2019-04-11T11:23:13.026Z,7.93
2019-04-11T11:24:11.847Z,7.95
2019-04-11T11:25:14.162Z,7.90
2019-04-11T11:26:12.636Z,8.10
2019-04-11T11:27:11.588Z,8.25
2019-04-11T11:28:11.687Z,8.70
2019-04-11T11:29:15.279Z,8.73
2019-04-11T11:30:12.796Z,8.63
2019-04-11T11:31:11.905Z,8.73
2019-04-11T11:32:11.507Z,8.66
2019-04-11T11:33:11.496Z,8.58
2019-04-11T11:34:14.615Z,8.38
2019-04-11T11:35:12.850Z,8.36
2019-04-11T11:36:11.463Z,8.07
2019-04-11T11:37:11.452Z,7.89
2019-04-11T11:38:11.462Z,7.68
2019-04-11T11:39:11.431Z,7.50
2019-04-11T11:40:14.574Z,7.42
2019-04-11T11:41:12.193Z,7.28
2019-04-11T11:42:12.354Z,7.27
2019-04-11T11:43:11.640Z,7.24
2019-04-11T11:44:11.783Z,7.24
2019-04-11T11:45:11.369Z,7.23
2019-04-11T11:46:12.200Z,7.20
2019-04-11T11:47:11.947Z,7.05
2019-04-11T11:48:15.995Z,6.95
2019-04-11T11:49:12.320Z,6.92
2019-04-11T11:50:16.455Z,6.89
2019-04-11T11:51:13.058Z,6.99
2019-04-11T11:52:11.423Z,7.09
2019-04-11T11:53:13.211Z,7.12
2019-04-11T11:54:11.568Z,7.07
2019-04-11T11:55:12.354Z,6.94
2019-04-11T11:56:11.246Z,6.81
2019-04-11T11:57:11.236Z,6.89
2019-04-11T11:58:14.365Z,6.84
2019-04-11T11:59:13.204Z,6.91
2019-04-11T12:00:12.577Z,7.06
2019-04-11T12:01:11.700Z,6.99
2019-04-11T12:02:15.763Z,7.02
2019-04-11T12:03:12.896Z,7.16
2019-04-11T12:04:11.160Z,7.05
2019-04-11T12:05:14.748Z,7.10
2019-04-11T12:06:12.647Z,7.09
2019-04-11T12:07:11.132Z,7.12
2019-04-11T12:08:13.614Z,7.07
2019-04-11T12:09:12.057Z,7.09
2019-04-11T12:10:11.289Z,7.03
2019-04-11T12:11:11.089Z,6.97
2019-04-11T12:12:11.402Z,6.89
2019-04-11T12:13:12.634Z,6.89
2019-04-11T12:14:11.702Z,6.85
2019-04-11T12:15:14.215Z,6.69
2019-04-11T12:16:16.043Z,6.74
2019-04-11T12:17:12.241Z,6.73
2019-04-11T12:18:11.115Z,6.73
2019-04-11T12:19:11.012Z,6.67
2019-04-11T12:20:14.220Z,6.70
2019-04-11T12:21:11.490Z,6.55
2019-04-11T12:22:10.966Z,6.44
2019-04-11T12:23:10.956Z,6.48
2019-04-11T12:24:11.432Z,6.59
2019-04-11T12:25:10.934Z,6.61
2019-04-11T12:26:13.560Z,6.58
2019-04-11T12:27:11.511Z,6.59
2019-04-11T12:28:14.597Z,6.52
2019-04-11T12:29:12.139Z,6.62
2019-04-11T12:30:11.008Z,6.64
2019-04-11T12:31:10.870Z,6.71
2019-04-11T12:32:10.861Z,6.76
2019-04-11T12:33:11.016Z,6.89
2019-04-11T12:34:10.837Z,6.76
2019-04-11T12:35:11.614Z,6.92
2019-04-11T12:36:10.815Z,7.06
2019-04-11T12:37:10.804Z,7.10
2019-04-11T12:38:10.793Z,7.06
2019-04-11T12:39:10.782Z,7.02
2019-04-11T12:40:10.772Z,7.07
2019-04-11T12:41:10.761Z,7.16
2019-04-11T12:42:10.751Z,7.23
2019-04-11T12:43:10.739Z,7.27
2019-04-11T12:44:10.729Z,7.35
2019-04-11T12:45:10.717Z,7.40
2019-04-11T12:46:10.707Z,7.24
2019-04-11T12:47:10.697Z,7.25
2019-04-11T12:48:12.170Z,7.37
2019-04-11T12:49:10.675Z,7.21
2019-04-11T12:50:10.665Z,7.28
2019-04-11T12:51:10.652Z,7.24
2019-04-11T12:52:10.643Z,7.34
2019-04-11T12:53:10.633Z,7.34
2019-04-11T12:54:10.621Z,7.39
2019-04-11T12:55:10.657Z,7.42
2019-04-11T12:56:10.601Z,7.42
2019-04-11T12:57:10.588Z,7.35
2019-04-11T12:58:10.587Z,7.49
2019-04-11T12:59:10.568Z,7.67
2019-04-11T13:00:10.557Z,7.82
2019-04-11T13:01:10.551Z,7.80
2019-04-11T13:02:10.534Z,7.82
2019-04-11T13:03:10.524Z,7.83
2019-04-11T13:04:10.513Z,7.67
2019-04-11T13:05:10.502Z,7.53
2019-04-11T13:06:10.492Z,7.37
2019-04-11T13:07:10.480Z,7.30
2019-04-11T13:08:10.470Z,7.20
2019-04-11T13:09:10.460Z,7.10
2019-04-11T13:10:10.453Z,7.25
2019-04-11T13:11:10.441Z,7.23
2019-04-11T13:12:10.427Z,7.31
2019-04-11T13:13:10.417Z,7.27
2019-04-11T13:14:12.203Z,7.24
2019-04-11T13:15:10.399Z,7.23
2019-04-11T13:16:12.308Z,7.31